GA3LIX7 ELLX-EDDL
Flight info
| Callsign | GA3LIX7 |
|---|---|
| Flight time | 0h 26m |
| Altitude | 21000 |
| Route | ARCKY T853 NVO T857 BIKMU BIKMU1A |
| Aircraft | C700/M-SBDGHM1RWXY/LB2 |
Departure
| Time | 2026-05-05 18:24 |
|---|---|
| Airport | Luxembourg-Findel International Airport (ELLX) |
Arrival
| Time | 2026-05-05 18:51 |
|---|---|
| Airport | Düsseldorf Airport (EDDL) |
| Time | Latitude | Longitude | Altitude | Speed | Heading |
|---|---|---|---|---|---|
| 2026-05-05 18:24 | 49.97626 | 6.22808 | 44013 ft | 465 kts | 279° |
| 2026-05-05 18:24 | 49.99734 | 6.13291 | 44024 ft | 470 kts | 296° |
| 2026-05-05 18:25 | 50.03719 | 6.05210 | 44028 ft | 476 kts | 315° |
| 2026-05-05 18:25 | 50.09239 | 5.99480 | 44030 ft | 482 kts | 334° |
| 2026-05-05 18:25 | 50.12407 | 5.97774 | 44027 ft | 484 kts | 345° |
| 2026-05-05 18:26 | 50.15747 | 5.96985 | 44031 ft | 487 kts | 355° |
| 2026-05-05 18:26 | 50.19134 | 5.97149 | 44028 ft | 489 kts | 6° |
| 2026-05-05 18:26 | 50.22464 | 5.98266 | 44039 ft | 491 kts | 17° |
| 2026-05-05 18:27 | 50.28513 | 6.03199 | 44027 ft | 494 kts | 38° |
| 2026-05-05 18:27 | 50.33086 | 6.11163 | 44016 ft | 495 kts | 58° |
| 2026-05-05 18:27 | 50.34676 | 6.15965 | 43374 ft | 500 kts | 69° |
| 2026-05-05 18:28 | 50.36130 | 6.26414 | 42074 ft | 484 kts | 90° |
| 2026-05-05 18:28 | 50.36185 | 6.31638 | 41437 ft | 477 kts | 87° |
| 2026-05-05 18:28 | 50.36744 | 6.36720 | 40797 ft | 473 kts | 76° |
| 2026-05-05 18:29 | 50.37876 | 6.41548 | 40180 ft | 471 kts | 66° |
| 2026-05-05 18:29 | 50.39516 | 6.45988 | 39591 ft | 471 kts | 57° |
| 2026-05-05 18:29 | 50.41543 | 6.50029 | 39014 ft | 473 kts | 49° |
| 2026-05-05 18:29 | 50.43936 | 6.53596 | 38445 ft | 477 kts | 40° |
| 2026-05-05 18:30 | 50.46632 | 6.56571 | 37746 ft | 480 kts | 32° |
| 2026-05-05 18:30 | 50.49617 | 6.58915 | 37059 ft | 480 kts | 24° |
| 2026-05-05 18:30 | 50.52777 | 6.60585 | 36409 ft | 480 kts | 17° |
| 2026-05-05 18:30 | 50.56070 | 6.61520 | 35761 ft | 482 kts | 7° |
| 2026-05-05 18:31 | 50.59424 | 6.61885 | 35149 ft | 484 kts | 5° |
| 2026-05-05 18:31 | 50.62796 | 6.62243 | 34551 ft | 487 kts | 6° |
| 2026-05-05 18:31 | 50.66176 | 6.62597 | 33963 ft | 488 kts | 6° |
| 2026-05-05 18:31 | 50.69578 | 6.62950 | 33137 ft | 490 kts | 6° |
| 2026-05-05 18:32 | 50.72972 | 6.63306 | 32215 ft | 487 kts | 6° |
| 2026-05-05 18:32 | 50.76344 | 6.63661 | 31321 ft | 484 kts | 6° |
| 2026-05-05 18:32 | 50.79691 | 6.64011 | 30493 ft | 481 kts | 6° |
| 2026-05-05 18:32 | 50.83034 | 6.64363 | 29746 ft | 483 kts | 5° |
| 2026-05-05 18:33 | 50.86396 | 6.64718 | 28909 ft | 486 kts | 5° |
| 2026-05-05 18:33 | 50.89775 | 6.65074 | 28090 ft | 488 kts | 5° |
| 2026-05-05 18:33 | 50.93173 | 6.65432 | 27304 ft | 490 kts | 5° |
| 2026-05-05 18:33 | 50.96582 | 6.65792 | 26538 ft | 491 kts | 5° |
| 2026-05-05 18:34 | 50.99953 | 6.66147 | 25789 ft | 477 kts | 5° |
| 2026-05-05 18:34 | 51.03214 | 6.66493 | 25055 ft | 464 kts | 5° |
| 2026-05-05 18:34 | 51.06422 | 6.66836 | 24353 ft | 461 kts | 5° |
| 2026-05-05 18:34 | 51.09630 | 6.67179 | 23657 ft | 464 kts | 5° |
| 2026-05-05 18:35 | 51.12860 | 6.67521 | 22883 ft | 466 kts | 5° |
| 2026-05-05 18:35 | 51.16052 | 6.67861 | 22097 ft | 464 kts | 4° |
| 2026-05-05 18:35 | 51.19260 | 6.68203 | 21290 ft | 460 kts | 4° |
| 2026-05-05 18:35 | 51.22433 | 6.68543 | 20529 ft | 453 kts | 4° |
| 2026-05-05 18:36 | 51.25535 | 6.68876 | 19778 ft | 442 kts | 4° |
| 2026-05-05 18:36 | 51.28585 | 6.69201 | 18906 ft | 437 kts | 4° |
| 2026-05-05 18:36 | 51.31584 | 6.69527 | 17873 ft | 425 kts | 4° |
| 2026-05-05 18:36 | 51.34493 | 6.69837 | 16684 ft | 413 kts | 4° |
| 2026-05-05 18:37 | 51.37328 | 6.70144 | 15544 ft | 403 kts | 4° |
| 2026-05-05 18:37 | 51.40097 | 6.70443 | 14445 ft | 394 kts | 4° |
| 2026-05-05 18:37 | 51.42804 | 6.70734 | 13351 ft | 387 kts | 4° |
| 2026-05-05 18:37 | 51.45411 | 6.71520 | 12166 ft | 379 kts | 20° |
| 2026-05-05 18:38 | 51.47619 | 6.73718 | 11028 ft | 375 kts | 43° |
| 2026-05-05 18:38 | 51.49164 | 6.77059 | 9929 ft | 374 kts | 63° |
| 2026-05-05 18:38 | 51.50577 | 6.80545 | 8747 ft | 372 kts | 48° |
| 2026-05-05 18:38 | 51.52666 | 6.82811 | 8037 ft | 353 kts | 21° |
| 2026-05-05 18:39 | 51.54952 | 6.83355 | 8024 ft | 318 kts | 356° |
| 2026-05-05 18:39 | 51.56960 | 6.82366 | 8026 ft | 294 kts | 329° |
| 2026-05-05 18:39 | 51.58396 | 6.80119 | 8037 ft | 289 kts | 302° |
| 2026-05-05 18:39 | 51.59011 | 6.77083 | 8029 ft | 288 kts | 274° |
| 2026-05-05 18:40 | 51.58674 | 6.73950 | 8033 ft | 287 kts | 246° |
| 2026-05-05 18:40 | 51.57474 | 6.71416 | 8039 ft | 287 kts | 221° |
| 2026-05-05 18:40 | 51.55883 | 6.69481 | 8041 ft | 287 kts | 215° |
| 2026-05-05 18:40 | 51.54234 | 6.67673 | 8034 ft | 287 kts | 214° |
| 2026-05-05 18:41 | 51.52570 | 6.65899 | 8039 ft | 287 kts | 213° |
| 2026-05-05 18:41 | 51.50924 | 6.64161 | 8037 ft | 287 kts | 213° |
| 2026-05-05 18:41 | 51.49236 | 6.62388 | 7658 ft | 295 kts | 213° |
| 2026-05-05 18:41 | 51.47528 | 6.60591 | 7047 ft | 292 kts | 213° |
| 2026-05-05 18:42 | 51.45839 | 6.58811 | 6435 ft | 289 kts | 213° |
| 2026-05-05 18:42 | 51.44171 | 6.57051 | 5803 ft | 286 kts | 213° |
| 2026-05-05 18:42 | 51.42517 | 6.55298 | 5162 ft | 284 kts | 213° |
| 2026-05-05 18:42 | 51.40872 | 6.53546 | 4564 ft | 283 kts | 213° |
| 2026-05-05 18:43 | 51.39126 | 6.52137 | 3905 ft | 282 kts | 198° |
| 2026-05-05 18:43 | 51.37250 | 6.51260 | 3278 ft | 281 kts | 194° |
| 2026-05-05 18:43 | 51.35386 | 6.50474 | 3067 ft | 270 kts | 193° |
| 2026-05-05 18:43 | 51.33561 | 6.49707 | 3058 ft | 276 kts | 193° |
| 2026-05-05 18:44 | 51.31700 | 6.48934 | 3057 ft | 277 kts | 193° |
| 2026-05-05 18:44 | 51.29822 | 6.48162 | 3057 ft | 280 kts | 193° |
| 2026-05-05 18:44 | 51.27934 | 6.47390 | 3056 ft | 279 kts | 193° |
| 2026-05-05 18:44 | 51.26050 | 6.46624 | 3052 ft | 279 kts | 193° |
| 2026-05-05 18:45 | 51.24166 | 6.45866 | 3052 ft | 279 kts | 193° |
| 2026-05-05 18:45 | 51.22282 | 6.45113 | 3057 ft | 279 kts | 193° |
| 2026-05-05 18:45 | 51.20378 | 6.44619 | 3039 ft | 277 kts | 178° |
| 2026-05-05 18:45 | 51.18588 | 6.45436 | 3040 ft | 264 kts | 147° |
| 2026-05-05 18:46 | 51.17376 | 6.47486 | 3038 ft | 247 kts | 116° |
| 2026-05-05 18:46 | 51.17035 | 6.50016 | 3041 ft | 225 kts | 88° |
| 2026-05-05 18:46 | 51.17142 | 6.52404 | 3046 ft | 208 kts | 84° |
| 2026-05-05 18:46 | 51.17277 | 6.54631 | 3037 ft | 195 kts | 81° |
| 2026-05-05 18:47 | 51.17742 | 6.56560 | 3039 ft | 183 kts | 56° |
| 2026-05-05 18:47 | 51.18487 | 6.58176 | 2975 ft | 182 kts | 53° |
| 2026-05-05 18:47 | 51.19305 | 6.59709 | 2822 ft | 181 kts | 42° |
| 2026-05-05 18:47 | 51.20405 | 6.60651 | 2669 ft | 179 kts | 31° |
| 2026-05-05 18:48 | 51.21322 | 6.61931 | 2541 ft | 177 kts | 48° |
| 2026-05-05 18:48 | 51.22173 | 6.63338 | 2410 ft | 176 kts | 46° |
| 2026-05-05 18:48 | 51.23035 | 6.64730 | 2248 ft | 176 kts | 46° |
| 2026-05-05 18:48 | 51.23891 | 6.66122 | 2119 ft | 175 kts | 46° |
| 2026-05-05 18:49 | 51.24702 | 6.67551 | 2030 ft | 172 kts | 50° |
| 2026-05-05 18:49 | 51.25461 | 6.68994 | 2021 ft | 169 kts | 52° |
| 2026-05-05 18:49 | 51.26127 | 6.70609 | 1706 ft | 168 kts | 61° |
| 2026-05-05 18:49 | 51.26570 | 6.72134 | 1327 ft | 157 kts | 61° |
| 2026-05-05 18:50 | 51.27147 | 6.73601 | 675 ft | 151 kts | 53° |
| 2026-05-05 18:50 | 51.27768 | 6.74818 | 295 ft | 131 kts | 49° |
| 2026-05-05 18:50 | 51.28254 | 6.75843 | 127 ft | 100 kts | 50° |
| 2026-05-05 18:50 | 51.28577 | 6.76492 | 127 ft | 54 kts | 52° |
| 2026-05-05 18:51 | 51.28769 | 6.76894 | 135 ft | 39 kts | 53° |
| 2026-05-05 18:51 | 51.28918 | 6.77207 | 134 ft | 32 kts | 53° |
| 2026-05-05 18:51 | 51.29019 | 6.77458 | 136 ft | 23 kts | 76° |
| 2026-05-05 18:51 | 51.28985 | 6.77594 | 137 ft | 5 kts | 142° |
| 2026-05-05 18:52 | 51.28984 | 6.77595 | 137 ft | 0 kts | 146° |
| 2026-05-05 18:52 | 51.28972 | 6.77610 | 136 ft | 0 kts | 143° |
| 2026-05-05 18:55 | 51.28971 | 6.77611 | 136 ft | 2 kts | 143° |
| 2026-05-05 18:55 | 51.28900 | 6.77635 | 136 ft | 18 kts | 217° |
| 2026-05-05 18:55 | 51.28796 | 6.77411 | 134 ft | 32 kts | 230° |
| 2026-05-05 18:56 | 51.28642 | 6.77093 | 133 ft | 38 kts | 234° |
| 2026-05-05 18:56 | 51.28489 | 6.76763 | 128 ft | 36 kts | 232° |
| 2026-05-05 18:56 | 51.28353 | 6.76489 | 127 ft | 11 kts | 230° |
| 2026-05-05 18:56 | 51.28346 | 6.76476 | 128 ft | 4 kts | 229° |
| 2026-05-05 18:57 | 51.28288 | 6.76351 | 126 ft | 24 kts | 234° |
| 2026-05-05 18:57 | 51.28161 | 6.76081 | 126 ft | 33 kts | 232° |
| 2026-05-05 18:57 | 51.28040 | 6.75830 | 125 ft | 21 kts | 232° |
| 2026-05-05 18:57 | 51.28009 | 6.75776 | 125 ft | 0 kts | 203° |
| 2026-05-05 18:58 | 51.27982 | 6.75809 | 122 ft | 15 kts | 144° |
| 2026-05-05 18:58 | 51.27815 | 6.75815 | 123 ft | 28 kts | 182° |
| 2026-05-05 18:58 | 51.27688 | 6.75808 | 121 ft | 18 kts | 182° |
| 2026-05-05 18:58 | 51.27644 | 6.75812 | 119 ft | 4 kts | 165° |
| 2026-05-05 18:59 | 51.27580 | 6.75861 | 119 ft | 13 kts | 153° |
| 2026-05-05 18:59 | 51.27486 | 6.75925 | 122 ft | 14 kts | 151° |
| 2026-05-05 18:59 | 51.27470 | 6.76017 | 120 ft | 0 kts | 71° |
| 2026-05-05 18:59 | 51.27474 | 6.76018 | 120 ft | 1 kts | 17° |
| 2026-05-05 19:00 | 51.27480 | 6.76036 | 122 ft | 5 kts | 75° |
| 2026-05-05 19:00 | 51.27515 | 6.76118 | 121 ft | 13 kts | 14° |
| 2026-05-05 19:00 | 51.27629 | 6.76045 | 121 ft | 24 kts | 342° |
| 2026-05-05 19:00 | 51.27817 | 6.76043 | 123 ft | 25 kts | 352° |
| 2026-05-05 19:01 | 51.27852 | 6.75947 | 124 ft | 3 kts | 262° |
| 2026-05-05 19:01 | 51.27787 | 6.75811 | 123 ft | 23 kts | 179° |
| 2026-05-05 19:01 | 51.27569 | 6.75869 | 120 ft | 22 kts | 152° |
| 2026-05-05 19:01 | 51.27541 | 6.75893 | 120 ft | 8 kts | 155° |
| 2026-05-05 19:02 | 51.27523 | 6.75900 | 121 ft | 1 kts | 177° |
| 2026-05-05 19:02 | 51.27489 | 6.75854 | 120 ft | 11 kts | 242° |
| 2026-05-05 19:02 | 51.27443 | 6.75755 | 120 ft | 9 kts | 242° |
| 2026-05-05 19:02 | 51.27425 | 6.75666 | 120 ft | 3 kts | 290° |
| 2026-05-05 19:03 | 51.27452 | 6.75646 | 121 ft | 12 kts | 352° |
| 2026-05-05 19:03 | 51.27483 | 6.75628 | 120 ft | 0 kts | 331° |
| 2026-05-05 19:04 | 51.27487 | 6.75624 | 121 ft | 0 kts | 332° |